Time;durP1;ratioP1;P1;durP2;ratioP2;P2;SDS_P1;SDS_P2;PMS_P1;PMS_P2;Temp;Humidity;BMP_temperature;BMP_pressure;BME280_temperature;BME280_humidity;BME280_pressure;Samples;Min_cycle;Max_cycle;Signal;HPM_P1;HPM_P2
2021/07/10 00:01:16;;;;;;;7.20;6.60;;;;;;;24.48;53.82;94610.88;827687;71;31713;-78
2021/07/10 00:16:15;;;;;;;7.97;7.20;;;;;;;24.41;54.83;94598.73;827793;71;32197;-80
2021/07/10 00:31:17;;;;;;;8.10;7.40;;;;;;;23.36;52.91;94594.41;827757;71;32189;-80
2021/07/10 00:46:20;;;;;;;7.90;7.10;;;;;;;23.26;52.47;94588.95;827839;71;31721;-82
2021/07/10 01:01:16;;;;;;;7.10;6.60;;;;;;;22.89;53.21;94581.60;827723;71;32209;-80
2021/07/10 01:16:13;;;;;;;7.63;7.13;;;;;;;22.27;53.68;94542.61;828946;71;31611;-81
2021/07/10 01:31:13;;;;;;;7.17;6.67;;;;;;;22.11;54.68;94558.77;834389;71;30957;-80
2021/07/10 01:46:14;;;;;;;8.00;7.40;;;;;;;22.89;53.08;94532.89;828083;71;31717;-81
2021/07/10 02:01:08;;;;;;;7.80;7.20;;;;;;;22.53;52.68;94527.67;828676;71;28684;-77
2021/07/10 02:16:10;;;;;;;7.53;7.03;;;;;;;21.76;54.68;94533.63;828531;71;28667;-77
2021/07/10 02:31:10;;;;;;;7.80;7.27;;;;;;;22.29;55.44;94541.69;828346;71;29325;-78
2021/07/10 03:16:09;;;;;;;9.80;8.90;;;;;;;23.98;53.40;94541.56;828352;71;29249;-77
2021/07/10 03:31:09;;;;;;;8.37;7.67;;;;;;;24.94;50.60;94535.77;834250;71;29262;-78
2021/07/10 03:46:14;;;;;;;9.13;8.23;;;;;;;25.13;49.72;94538.72;827768;71;31753;-75
2021/07/10 04:01:14;;;;;;;8.97;8.17;;;;;;;25.39;49.01;94545.13;827638;71;31753;-76
2021/07/10 04:16:09;;;;;;;8.40;7.80;;;;;;;25.45;46.83;94536.13;828409;71;29240;-77
2021/07/10 04:31:08;;;;;;;7.87;7.20;;;;;;;25.48;47.19;94538.61;829608;71;28677;-79
2021/07/10 04:46:14;;;;;;;7.60;7.00;;;;;;;26.05;44.90;94534.61;834596;71;30748;-75
2021/07/10 05:01:15;;;;;;;7.53;7.00;;;;;;;26.87;43.76;94539.05;829293;71;30741;-80
2021/07/10 05:16:15;;;;;;;8.00;7.43;;;;;;;27.28;42.69;94537.13;829422;71;31820;-77
2021/07/10 05:31:08;;;;;;;7.23;6.73;;;;;;;27.62;41.90;94539.23;835893;71;27643;-79
2021/07/10 05:46:10;;;;;;;7.83;7.30;;;;;;;27.07;41.88;94542.04;835982;71;28759;-80
2021/07/10 06:01:10;;;;;;;7.53;6.93;;;;;;;;;;835951;71;29145;-86
2021/07/10 06:31:31;;;;;;;8.73;8.03;;;;;;;;;;835980;71;32744;-86
2021/07/10 06:46:14;;;;;;;8.00;7.40;;;;;;;25.55;45.15;94562.23;829975;70;30127;-83
2021/07/10 07:01:44;;;;;;;8.43;7.73;;;;;;;26.06;45.21;94560.95;781418;74;33024;-85
2021/07/10 07:16:17;;;;;;;8.40;7.70;;;;;;;26.31;44.86;94559.56;835897;70;32822;-85
2021/07/10 07:31:18;;;;;;;9.03;8.20;;;;;;;26.80;44.47;94555.80;828990;70;32720;-85
2021/07/10 07:46:15;;;;;;;8.70;7.97;;;;;;;;;;829510;70;32778;-85
2021/07/10 08:16:41;;;;;;;8.37;7.77;;;;;;;28.04;42.59;94533.91;836207;70;32808;-87
2021/07/10 08:46:18;;;;;;;9.20;8.40;;;;;;;28.13;42.65;94510.69;827904;71;32137;-76
2021/07/10 09:16:12;;;;;;;8.43;7.72;;;;;;;28.62;41.65;94511.19;823416;71;38176;-79
2021/07/10 09:31:15;;;;;;;8.80;8.10;;;;;;;29.00;40.98;94515.92;829366;71;29864;-81
2021/07/10 09:46:10;;;;;;;9.33;8.50;;;;;;;29.04;40.26;94493.67;829855;71;30178;-81
2021/07/10 10:01:34;;;;;;;9.40;8.70;;;;;;;29.34;40.11;94494.84;829811;71;30294;-77
2021/07/10 10:16:15;;;;;;;8.63;8.03;;;;;;;30.07;39.38;94483.03;829955;71;29850;-81
2021/07/10 10:31:38;;;;;;;8.97;8.37;;;;;;;28.68;40.84;94478.51;802527;73;33037;-88
2021/07/10 10:46:27;;;;;;;9.13;8.33;;;;;;;27.91;41.76;94475.64;830536;71;32588;-85
2021/07/10 11:01:08;;;;;;;9.60;8.90;;;;;;;27.74;42.32;94459.20;830072;71;29743;-82
2021/07/10 11:16:19;;;;;;;8.67;7.97;;;;;;;27.87;40.53;94459.48;828613;71;33649;-76
2021/07/10 11:31:33;;;;;;;8.30;7.70;;;;;;;27.97;40.58;94437.03;825460;71;32680;-80
2021/07/10 12:16:59;;;;;;;6.70;6.27;;;;;;;29.02;35.97;94401.44;788439;71;33064;-84
2021/07/10 12:46:08;;;;;;;7.90;7.20;;;;;;;29.43;34.95;94399.67;830401;71;29704;-88
2021/07/10 13:01:09;;;;;;;7.73;6.93;;;;;;;29.24;35.36;94372.17;829936;71;30241;-84
2021/07/10 13:16:16;;;;;;;6.73;6.23;;;;;;;29.66;34.73;94337.44;835835;71;32891;-81
2021/07/10 13:46:11;;;;;;;6.70;6.20;;;;;;;29.19;34.57;94329.38;830181;70;30177;-83
2021/07/10 14:01:09;;;;;;;8.47;7.13;;;;;;;29.17;36.34;94297.95;835696;71;29662;-77
2021/07/10 14:16:15;;;;;;;7.10;6.40;;;;;;;28.84;36.08;94303.69;829846;71;32721;-80
2021/07/10 14:46:22;;;;;;;7.03;6.43;;;;;;;29.06;35.76;94281.14;823434;70;32857;-81
2021/07/10 15:16:23;;;;;;;6.73;6.23;;;;;;;28.59;37.77;94237.34;828512;71;32701;-86
2021/07/10 15:31:53;;;;;;;6.90;6.43;;;;;;;28.52;37.48;94235.48;830257;71;33240;-87
2021/07/10 15:46:45;;;;;;;;;;;;;;;;;;;;;
2021/07/10 16:16:28;;;;;;;8.40;7.80;;;;;;;28.37;38.19;94273.31;802216;71;32949;-83
2021/07/10 16:31:26;;;;;;;8.33;7.63;;;;;;;28.14;39.20;94286.92;834293;71;32797;-86
2021/07/10 16:46:21;;;;;;;8.20;7.50;;;;;;;28.03;39.59;94299.02;831982;71;33065;-85
2021/07/10 17:01:54;;;;;;;8.63;8.03;;;;;;;27.88;39.59;94307.29;829718;71;32792;-85
2021/07/10 17:16:32;;;;;;;8.37;7.67;;;;;;;27.38;39.48;94317.98;830136;71;32733;-87
2021/07/10 17:46:15;;;;;;;101.73;89.60;;;;;;;26.70;41.16;94340.65;833441;71;32714;-80
2021/07/10 18:01:19;;;;;;;7.63;6.93;;;;;;;;;;819060;71;33106;-78
2021/07/10 18:16:27;;;;;;;7.57;6.90;;;;;;;25.69;39.78;94367.17;828648;71;32710;-78
2021/07/10 18:31:08;;;;;;;9.33;7.17;;;;;;;25.59;40.56;94373.54;820123;70;30262;-79
2021/07/10 18:46:09;;;;;;;7.60;6.90;;;;;;;25.60;40.38;94402.52;834558;71;30262;-79
2021/07/10 19:01:14;;;;;;;8.30;7.50;;;;;;;25.23;39.79;94434.59;827794;71;32779;-78
2021/07/10 19:16:08;;;;;;;10.50;9.50;;;;;;;24.85;41.47;94440.07;828486;71;29760;-80
2021/07/10 19:31:16;;;;;;;10.83;9.87;;;;;;;24.99;43.52;94449.49;827548;71;32940;-75
2021/07/10 19:46:08;;;;;;;9.60;8.70;;;;;;;24.65;45.81;94451.13;828272;71;30277;-78
2021/07/10 20:01:08;;;;;;;8.87;8.27;;;;;;;24.09;47.11;94440.36;828511;71;29755;-76
2021/07/10 20:16:11;;;;;;;9.87;8.93;;;;;;;23.95;46.53;94453.87;828750;71;30302;-77
2021/07/10 20:31:09;;;;;;;9.87;8.77;;;;;;;23.79;47.71;94448.03;828295;71;30790;-76
2021/07/10 20:46:08;;;;;;;9.23;8.53;;;;;;;23.45;47.12;94442.02;828405;71;29823;-77
2021/07/10 21:16:09;;;;;;;8.50;7.80;;;;;;;22.90;48.41;94438.08;834175;71;30305;-74
2021/07/10 21:31:14;;;;;;;8.23;6.17;;;;;;;22.97;45.04;94433.35;827622;71;32776;-76
2021/07/10 21:46:09;;;;;;;7.47;6.77;;;;;;;22.83;44.09;94423.30;834126;71;29768;-74
2021/07/10 22:01:31;;;;;;;6.27;5.73;;;;;;;22.74;43.84;94424.91;828395;71;30328;-80
2021/07/10 22:16:09;;;;;;;5.67;5.20;;;;;;;22.66;44.03;94413.18;834336;71;29686;-77
2021/07/10 22:31:09;;;;;;;6.07;5.67;;;;;;;22.55;44.46;94391.69;828402;71;29697;-76
2021/07/10 22:46:10;;;;;;;6.63;5.90;;;;;;;22.42;45.61;94377.02;834134;71;29749;-76
2021/07/10 23:01:09;;;;;;;6.73;6.10;;;;;;;22.18;46.78;94348.27;834025;71;30579;-76
2021/07/10 23:16:17;;;;;;;6.90;6.40;;;;;;;22.11;47.53;94355.65;827460;71;32635;-76
2021/07/10 23:31:21;;;;;;;7.40;6.20;;;;;;;21.69;48.63;94331.86;827695;71;32732;-80
2021/07/10 23:46:08;;;;;;;6.70;6.20;;;;;;;21.31;49.63;94326.93;834281;71;29685;-76
